Lexington, KY (40517)

5:36 PM EST on December 17, 2014 (GMT -0500)
Belleau Wood/Veteran's Park | Change Station
CLOSE
Current Station
Personal Weather Station
Location: Lexington, KY
Elevation: 978 ft
Nearby Weather Stations

Elev 978 ft 37.97 °N, 84.51 °W | Updated 1 second ago

Overcast
Overcast
34.7 °F
Feels Like 35 °F
N
0.0
Wind Variable Wind from WSW
Gusts 2.0 mph

Today
High -- | Low -- °F
--% Chance of Precip.
Yesterday
High -- | Low -- °F
Precip. -- in
7:48 AM 5:20 PM
Waning Crescent, 19% visible
Pressure 30.25 in
Visibility 10.0 miles
Clouds Overcast 2100 ft
Windchill 35 °F
Dew Point 28 °F
Humidity 77%
Rainfall 0.00 in
Snow Depth Not available.
UV 0 out of 12
Pollen .10 out of 12
Air Quality Not available.
Flu Activity Not available.
METAR KLEX 172154Z 28008KT 10SM OVC021 01/M03 A3023 RMK AO2 SLP244 T00061033

More Conditions Fewer Conditions

Pressure 30.25 in
Visibility 10.0 miles
Clouds Overcast 2100 ft
Windchill 35 °F
Dew Point 28 °F
Humidity 77%
Rainfall 0.00 in
Snow Depth Not available.
UV 0 out of 12
Pollen .10 out of 12
Air Quality Not available.
Flu Activity Not available.
METAR KLEX 172154Z 28008KT 10SM OVC021 01/M03 A3023 RMK AO2 SLP244 T00061033

More Conditions Fewer Conditions

10-Day Weather Forecast

Almanac

Astronomy

Dec. 17, 2014 Rise Set
Actual Time
Civil Twilight
Nautical Twilight
Astronomical Twilight
Moon
Length of Visible Light
Length of Day
Tomorrow will be .
, % of the Moon is Illuminated

Today's Extremes

State Highs State Lows

Community

WunderPhotos

Upload Photos

1,778,813 photos uploaded!

WunderBlogs® & News

Nearby

Air Quality

  Air Quality AQ Index Pollutant
Not available.

Snow Depth

Station Depth Elevation

Earthquake Activity

City Distance Mag. Time & Date
Minimum magnitude displayed is 2.5.

Coastal Water Temperatures

Place Temperature

Nearby Weather Stations